sensor_id;sensor_type;location;lat;lon;timestamp;P1;durP1;ratioP1;P2;durP2;ratioP2
67997;SDS011;54773;53.388;-1.504;2023-09-19T00:00:11;7.28;;;1.40;;
67997;SDS011;54773;53.388;-1.504;2023-09-19T00:02:56;7.05;;;1.30;;
67997;SDS011;54773;53.388;-1.504;2023-09-19T00:05:43;10.27;;;1.50;;
67997;SDS011;54773;53.388;-1.504;2023-09-19T00:08:28;6.40;;;1.02;;
67997;SDS011;54773;53.388;-1.504;2023-09-19T00:11:12;5.30;;;1.20;;
67997;SDS011;54773;53.388;-1.504;2023-09-19T00:13:56;5.90;;;1.48;;
67997;SDS011;54773;53.388;-1.504;2023-09-19T00:16:43;6.38;;;1.05;;
67997;SDS011;54773;53.388;-1.504;2023-09-19T00:19:27;6.55;;;1.25;;
67997;SDS011;54773;53.388;-1.504;2023-09-19T00:24:56;4.35;;;1.23;;
67997;SDS011;54773;53.388;-1.504;2023-09-19T00:27:41;7.13;;;1.37;;
67997;SDS011;54773;53.388;-1.504;2023-09-19T00:30:25;6.15;;;1.58;;
67997;SDS011;54773;53.388;-1.504;2023-09-19T00:33:09;10.75;;;2.15;;
67997;SDS011;54773;53.388;-1.504;2023-09-19T00:35:56;7.97;;;1.70;;
67997;SDS011;54773;53.388;-1.504;2023-09-19T00:38:41;6.13;;;1.52;;
67997;SDS011;54773;53.388;-1.504;2023-09-19T00:41:28;7.07;;;1.30;;
67997;SDS011;54773;53.388;-1.504;2023-09-19T00:44:14;9.35;;;1.48;;
67997;SDS011;54773;53.388;-1.504;2023-09-19T00:46:59;7.22;;;1.60;;
67997;SDS011;54773;53.388;-1.504;2023-09-19T00:49:44;10.77;;;1.40;;
67997;SDS011;54773;53.388;-1.504;2023-09-19T00:52:30;6.35;;;1.33;;
67997;SDS011;54773;53.388;-1.504;2023-09-19T00:55:16;10.65;;;1.52;;
67997;SDS011;54773;53.388;-1.504;2023-09-19T00:58:03;8.63;;;1.40;;
67997;SDS011;54773;53.388;-1.504;2023-09-19T01:00:50;5.35;;;1.30;;
67997;SDS011;54773;53.388;-1.504;2023-09-19T01:03:34;6.72;;;1.52;;
67997;SDS011;54773;53.388;-1.504;2023-09-19T01:06:18;5.27;;;1.20;;
67997;SDS011;54773;53.388;-1.504;2023-09-19T01:09:02;5.27;;;1.63;;
67997;SDS011;54773;53.388;-1.504;2023-09-19T01:11:48;7.82;;;1.95;;
67997;SDS011;54773;53.388;-1.504;2023-09-19T01:14:37;8.38;;;1.77;;
67997;SDS011;54773;53.388;-1.504;2023-09-19T01:17:27;8.93;;;1.35;;
67997;SDS011;54773;53.388;-1.504;2023-09-19T01:30:06;9.48;;;1.50;;
67997;SDS011;54773;53.388;-1.504;2023-09-19T01:32:55;5.50;;;1.63;;
67997;SDS011;54773;53.388;-1.504;2023-09-19T01:35:38;6.53;;;1.37;;
67997;SDS011;54773;53.388;-1.504;2023-09-19T01:38:22;7.63;;;1.77;;
67997;SDS011;54773;53.388;-1.504;2023-09-19T01:41:10;7.68;;;1.40;;
67997;SDS011;54773;53.388;-1.504;2023-09-19T01:43:55;9.25;;;1.55;;
67997;SDS011;54773;53.388;-1.504;2023-09-19T01:46:40;9.55;;;1.40;;
67997;SDS011;54773;53.388;-1.504;2023-09-19T01:52:12;8.70;;;1.73;;
67997;SDS011;54773;53.388;-1.504;2023-09-19T01:55:05;9.43;;;1.77;;
67997;SDS011;54773;53.388;-1.504;2023-09-19T01:57:58;8.88;;;1.73;;
67997;SDS011;54773;53.388;-1.504;2023-09-19T02:00:45;7.97;;;1.73;;
67997;SDS011;54773;53.388;-1.504;2023-09-19T02:03:33;7.82;;;1.50;;
67997;SDS011;54773;53.388;-1.504;2023-09-19T02:06:18;8.48;;;1.70;;
67997;SDS011;54773;53.388;-1.504;2023-09-19T02:09:02;8.27;;;2.40;;
67997;SDS011;54773;53.388;-1.504;2023-09-19T02:11:47;9.25;;;1.95;;
67997;SDS011;54773;53.388;-1.504;2023-09-19T02:14:32;8.40;;;1.98;;
67997;SDS011;54773;53.388;-1.504;2023-09-19T02:17:17;11.38;;;1.80;;
67997;SDS011;54773;53.388;-1.504;2023-09-19T02:20:01;7.65;;;2.05;;
67997;SDS011;54773;53.388;-1.504;2023-09-19T02:22:47;10.23;;;2.45;;
67997;SDS011;54773;53.388;-1.504;2023-09-19T02:25:33;14.27;;;2.33;;
67997;SDS011;54773;53.388;-1.504;2023-09-19T02:28:19;8.27;;;2.17;;
67997;SDS011;54773;53.388;-1.504;2023-09-19T02:31:03;14.15;;;1.98;;
67997;SDS011;54773;53.388;-1.504;2023-09-19T02:33:49;11.48;;;2.00;;
67997;SDS011;54773;53.388;-1.504;2023-09-19T02:36:33;15.10;;;3.08;;
67997;SDS011;54773;53.388;-1.504;2023-09-19T02:39:17;15.63;;;2.72;;
67997;SDS011;54773;53.388;-1.504;2023-09-19T02:42:01;8.93;;;2.20;;
67997;SDS011;54773;53.388;-1.504;2023-09-19T02:44:48;10.38;;;2.00;;
67997;SDS011;54773;53.388;-1.504;2023-09-19T02:47:31;11.20;;;2.20;;
67997;SDS011;54773;53.388;-1.504;2023-09-19T02:50:15;10.77;;;1.83;;
67997;SDS011;54773;53.388;-1.504;2023-09-19T02:53:00;8.55;;;1.83;;
67997;SDS011;54773;53.388;-1.504;2023-09-19T02:55:43;18.13;;;2.85;;
67997;SDS011;54773;53.388;-1.504;2023-09-19T02:58:27;8.90;;;1.83;;
67997;SDS011;54773;53.388;-1.504;2023-09-19T03:01:14;9.68;;;1.70;;
67997;SDS011;54773;53.388;-1.504;2023-09-19T03:03:58;6.43;;;1.55;;
67997;SDS011;54773;53.388;-1.504;2023-09-19T03:06:42;13.83;;;2.20;;
67997;SDS011;54773;53.388;-1.504;2023-09-19T03:09:25;6.93;;;1.63;;
67997;SDS011;54773;53.388;-1.504;2023-09-19T03:12:10;8.98;;;2.08;;
67997;SDS011;54773;53.388;-1.504;2023-09-19T03:17:40;10.02;;;1.80;;
67997;SDS011;54773;53.388;-1.504;2023-09-19T03:20:26;11.30;;;1.92;;
67997;SDS011;54773;53.388;-1.504;2023-09-19T03:23:11;11.02;;;2.40;;
67997;SDS011;54773;53.388;-1.504;2023-09-19T03:25:57;13.85;;;2.30;;
67997;SDS011;54773;53.388;-1.504;2023-09-19T03:28:42;9.23;;;1.65;;
67997;SDS011;54773;53.388;-1.504;2023-09-19T03:31:27;12.40;;;2.70;;
67997;SDS011;54773;53.388;-1.504;2023-09-19T03:34:11;11.60;;;2.30;;
67997;SDS011;54773;53.388;-1.504;2023-09-19T03:36:55;12.80;;;1.92;;
67997;SDS011;54773;53.388;-1.504;2023-09-19T03:39:39;11.27;;;1.70;;
67997;SDS011;54773;53.388;-1.504;2023-09-19T03:42:23;10.68;;;3.08;;
67997;SDS011;54773;53.388;-1.504;2023-09-19T03:45:10;14.65;;;2.55;;
67997;SDS011;54773;53.388;-1.504;2023-09-19T03:47:59;8.90;;;2.47;;
67997;SDS011;54773;53.388;-1.504;2023-09-19T03:50:43;9.38;;;2.42;;
67997;SDS011;54773;53.388;-1.504;2023-09-19T03:53:27;11.83;;;2.73;;
67997;SDS011;54773;53.388;-1.504;2023-09-19T03:56:12;8.38;;;2.03;;
67997;SDS011;54773;53.388;-1.504;2023-09-19T03:58:55;12.93;;;2.60;;
67997;SDS011;54773;53.388;-1.504;2023-09-19T04:01:39;11.20;;;2.33;;
67997;SDS011;54773;53.388;-1.504;2023-09-19T04:04:25;13.63;;;2.00;;
67997;SDS011;54773;53.388;-1.504;2023-09-19T04:07:09;15.43;;;2.10;;
67997;SDS011;54773;53.388;-1.504;2023-09-19T04:09:53;8.63;;;1.80;;
67997;SDS011;54773;53.388;-1.504;2023-09-19T04:12:37;10.20;;;2.10;;
67997;SDS011;54773;53.388;-1.504;2023-09-19T04:15:22;14.55;;;2.65;;
67997;SDS011;54773;53.388;-1.504;2023-09-19T04:18:06;12.20;;;2.22;;
67997;SDS011;54773;53.388;-1.504;2023-09-19T04:20:50;9.95;;;1.85;;
67997;SDS011;54773;53.388;-1.504;2023-09-19T04:23:34;10.32;;;2.05;;
67997;SDS011;54773;53.388;-1.504;2023-09-19T04:26:18;9.02;;;1.50;;
67997;SDS011;54773;53.388;-1.504;2023-09-19T04:29:02;10.60;;;2.53;;
67997;SDS011;54773;53.388;-1.504;2023-09-19T04:31:47;11.15;;;2.00;;
67997;SDS011;54773;53.388;-1.504;2023-09-19T04:34:31;10.03;;;2.43;;
67997;SDS011;54773;53.388;-1.504;2023-09-19T04:37:15;7.50;;;1.83;;
67997;SDS011;54773;53.388;-1.504;2023-09-19T04:39:59;8.10;;;1.93;;
67997;SDS011;54773;53.388;-1.504;2023-09-19T04:42:44;7.03;;;1.73;;
67997;SDS011;54773;53.388;-1.504;2023-09-19T04:45:28;8.00;;;1.87;;
67997;SDS011;54773;53.388;-1.504;2023-09-19T04:48:12;10.30;;;1.70;;
67997;SDS011;54773;53.388;-1.504;2023-09-19T04:50:58;8.38;;;1.63;;
67997;SDS011;54773;53.388;-1.504;2023-09-19T04:53:43;8.80;;;2.20;;
67997;SDS011;54773;53.388;-1.504;2023-09-19T04:56:27;13.90;;;2.10;;
67997;SDS011;54773;53.388;-1.504;2023-09-19T04:59:12;10.02;;;2.03;;
67997;SDS011;54773;53.388;-1.504;2023-09-19T05:01:56;12.23;;;2.63;;
67997;SDS011;54773;53.388;-1.504;2023-09-19T05:04:40;14.20;;;3.05;;
67997;SDS011;54773;53.388;-1.504;2023-09-19T05:07:24;14.68;;;2.63;;
67997;SDS011;54773;53.388;-1.504;2023-09-19T05:10:09;10.73;;;2.35;;
67997;SDS011;54773;53.388;-1.504;2023-09-19T05:12:55;9.32;;;1.83;;
67997;SDS011;54773;53.388;-1.504;2023-09-19T05:15:39;10.67;;;2.10;;
67997;SDS011;54773;53.388;-1.504;2023-09-19T05:18:23;14.50;;;2.30;;
67997;SDS011;54773;53.388;-1.504;2023-09-19T05:21:07;8.37;;;1.93;;
67997;SDS011;54773;53.388;-1.504;2023-09-19T05:23:52;9.98;;;2.22;;
67997;SDS011;54773;53.388;-1.504;2023-09-19T05:26:35;14.20;;;2.43;;
67997;SDS011;54773;53.388;-1.504;2023-09-19T05:29:19;7.55;;;1.90;;
67997;SDS011;54773;53.388;-1.504;2023-09-19T05:32:03;9.98;;;2.60;;
67997;SDS011;54773;53.388;-1.504;2023-09-19T05:34:49;14.55;;;2.40;;
67997;SDS011;54773;53.388;-1.504;2023-09-19T05:37:37;7.07;;;2.42;;
67997;SDS011;54773;53.388;-1.504;2023-09-19T05:40:21;9.55;;;2.20;;
67997;SDS011;54773;53.388;-1.504;2023-09-19T05:43:05;7.65;;;1.90;;
67997;SDS011;54773;53.388;-1.504;2023-09-19T05:45:49;11.02;;;2.67;;
67997;SDS011;54773;53.388;-1.504;2023-09-19T05:48:35;9.63;;;2.35;;
67997;SDS011;54773;53.388;-1.504;2023-09-19T05:51:19;7.03;;;1.75;;
67997;SDS011;54773;53.388;-1.504;2023-09-19T05:54:06;7.07;;;1.90;;
67997;SDS011;54773;53.388;-1.504;2023-09-19T05:56:50;9.23;;;2.13;;
67997;SDS011;54773;53.388;-1.504;2023-09-19T05:59:36;10.10;;;1.98;;
67997;SDS011;54773;53.388;-1.504;2023-09-19T06:02:20;8.65;;;2.55;;
67997;SDS011;54773;53.388;-1.504;2023-09-19T06:05:05;7.78;;;2.25;;
67997;SDS011;54773;53.388;-1.504;2023-09-19T06:07:50;8.25;;;2.35;;
67997;SDS011;54773;53.388;-1.504;2023-09-19T06:10:36;7.07;;;2.25;;
67997;SDS011;54773;53.388;-1.504;2023-09-19T06:13:20;6.35;;;2.00;;
67997;SDS011;54773;53.388;-1.504;2023-09-19T06:16:04;6.90;;;2.13;;
67997;SDS011;54773;53.388;-1.504;2023-09-19T06:18:48;8.50;;;1.92;;
67997;SDS011;54773;53.388;-1.504;2023-09-19T06:24:18;7.03;;;2.00;;
67997;SDS011;54773;53.388;-1.504;2023-09-19T06:27:02;6.28;;;1.85;;
67997;SDS011;54773;53.388;-1.504;2023-09-19T06:29:48;9.88;;;2.17;;
67997;SDS011;54773;53.388;-1.504;2023-09-19T06:32:31;5.05;;;1.83;;
67997;SDS011;54773;53.388;-1.504;2023-09-19T06:35:15;4.38;;;2.25;;
67997;SDS011;54773;53.388;-1.504;2023-09-19T06:38:03;7.30;;;1.88;;
67997;SDS011;54773;53.388;-1.504;2023-09-19T06:40:47;5.80;;;1.65;;
67997;SDS011;54773;53.388;-1.504;2023-09-19T06:43:32;6.72;;;1.88;;
67997;SDS011;54773;53.388;-1.504;2023-09-19T06:46:19;5.82;;;2.00;;
67997;SDS011;54773;53.388;-1.504;2023-09-19T06:49:03;6.23;;;1.47;;
67997;SDS011;54773;53.388;-1.504;2023-09-19T06:51:50;7.75;;;1.75;;
67997;SDS011;54773;53.388;-1.504;2023-09-19T06:54:34;6.15;;;2.08;;
67997;SDS011;54773;53.388;-1.504;2023-09-19T06:57:19;8.55;;;2.03;;
67997;SDS011;54773;53.388;-1.504;2023-09-19T07:00:04;7.95;;;1.80;;
67997;SDS011;54773;53.388;-1.504;2023-09-19T07:03:03;9.32;;;2.30;;
67997;SDS011;54773;53.388;-1.504;2023-09-19T07:05:51;8.88;;;2.30;;
67997;SDS011;54773;53.388;-1.504;2023-09-19T07:08:36;7.07;;;2.00;;
67997;SDS011;54773;53.388;-1.504;2023-09-19T07:11:22;10.60;;;2.65;;
67997;SDS011;54773;53.388;-1.504;2023-09-19T07:14:06;7.00;;;2.05;;
67997;SDS011;54773;53.388;-1.504;2023-09-19T07:16:50;9.00;;;2.60;;
67997;SDS011;54773;53.388;-1.504;2023-09-19T07:19:35;10.07;;;2.50;;
67997;SDS011;54773;53.388;-1.504;2023-09-19T07:22:20;9.13;;;2.78;;
67997;SDS011;54773;53.388;-1.504;2023-09-19T07:25:05;6.63;;;2.30;;
67997;SDS011;54773;53.388;-1.504;2023-09-19T07:27:49;6.82;;;2.30;;
67997;SDS011;54773;53.388;-1.504;2023-09-19T07:30:38;9.95;;;2.30;;
67997;SDS011;54773;53.388;-1.504;2023-09-19T07:33:23;12.95;;;2.78;;
67997;SDS011;54773;53.388;-1.504;2023-09-19T07:36:10;10.25;;;2.25;;
67997;SDS011;54773;53.388;-1.504;2023-09-19T07:38:57;7.82;;;2.53;;
67997;SDS011;54773;53.388;-1.504;2023-09-19T07:41:41;9.93;;;2.28;;
67997;SDS011;54773;53.388;-1.504;2023-09-19T07:44:26;6.40;;;2.63;;
67997;SDS011;54773;53.388;-1.504;2023-09-19T07:47:10;8.50;;;2.75;;
67997;SDS011;54773;53.388;-1.504;2023-09-19T07:49:54;7.00;;;2.28;;
67997;SDS011;54773;53.388;-1.504;2023-09-19T07:52:42;6.47;;;2.25;;
67997;SDS011;54773;53.388;-1.504;2023-09-19T07:55:26;9.85;;;2.35;;
67997;SDS011;54773;53.388;-1.504;2023-09-19T07:58:10;6.30;;;2.47;;
67997;SDS011;54773;53.388;-1.504;2023-09-19T08:01:02;8.30;;;2.60;;
67997;SDS011;54773;53.388;-1.504;2023-09-19T08:03:49;6.65;;;2.10;;
67997;SDS011;54773;53.388;-1.504;2023-09-19T08:06:33;6.67;;;1.73;;
67997;SDS011;54773;53.388;-1.504;2023-09-19T08:09:18;9.93;;;1.90;;
67997;SDS011;54773;53.388;-1.504;2023-09-19T08:12:05;7.85;;;2.17;;
67997;SDS011;54773;53.388;-1.504;2023-09-19T08:14:54;8.45;;;1.98;;
67997;SDS011;54773;53.388;-1.504;2023-09-19T08:17:41;6.70;;;2.10;;
67997;SDS011;54773;53.388;-1.504;2023-09-19T08:20:25;6.45;;;2.13;;
67997;SDS011;54773;53.388;-1.504;2023-09-19T08:23:09;9.48;;;2.03;;
67997;SDS011;54773;53.388;-1.504;2023-09-19T08:25:56;6.18;;;1.88;;
67997;SDS011;54773;53.388;-1.504;2023-09-19T08:28:41;8.52;;;1.67;;
67997;SDS011;54773;53.388;-1.504;2023-09-19T08:31:25;6.30;;;1.90;;
67997;SDS011;54773;53.388;-1.504;2023-09-19T08:34:10;6.03;;;1.80;;
67997;SDS011;54773;53.388;-1.504;2023-09-19T08:36:54;6.88;;;1.73;;
67997;SDS011;54773;53.388;-1.504;2023-09-19T08:39:41;3.90;;;1.52;;
67997;SDS011;54773;53.388;-1.504;2023-09-19T08:42:26;5.95;;;1.55;;
67997;SDS011;54773;53.388;-1.504;2023-09-19T08:45:10;4.85;;;1.77;;
67997;SDS011;54773;53.388;-1.504;2023-09-19T08:48:20;5.70;;;1.40;;
67997;SDS011;54773;53.388;-1.504;2023-09-19T08:51:09;4.47;;;1.50;;
67997;SDS011;54773;53.388;-1.504;2023-09-19T08:54:08;5.35;;;1.30;;
67997;SDS011;54773;53.388;-1.504;2023-09-19T08:56:55;4.55;;;1.63;;
67997;SDS011;54773;53.388;-1.504;2023-09-19T08:59:49;3.13;;;1.00;;
67997;SDS011;54773;53.388;-1.504;2023-09-19T09:02:33;4.28;;;1.73;;
67997;SDS011;54773;53.388;-1.504;2023-09-19T09:05:18;5.18;;;1.48;;
67997;SDS011;54773;53.388;-1.504;2023-09-19T09:08:06;13.45;;;6.85;;
67997;SDS011;54773;53.388;-1.504;2023-09-19T09:10:51;4.95;;;1.83;;
67997;SDS011;54773;53.388;-1.504;2023-09-19T09:13:35;3.80;;;1.50;;
67997;SDS011;54773;53.388;-1.504;2023-09-19T09:16:21;4.35;;;1.90;;
67997;SDS011;54773;53.388;-1.504;2023-09-19T09:19:05;5.50;;;1.35;;
67997;SDS011;54773;53.388;-1.504;2023-09-19T09:21:49;4.75;;;1.30;;
67997;SDS011;54773;53.388;-1.504;2023-09-19T09:24:35;4.03;;;1.70;;
67997;SDS011;54773;53.388;-1.504;2023-09-19T09:27:22;4.45;;;1.30;;
67997;SDS011;54773;53.388;-1.504;2023-09-19T09:30:07;2.67;;;1.10;;
67997;SDS011;54773;53.388;-1.504;2023-09-19T09:33:01;3.58;;;1.20;;
67997;SDS011;54773;53.388;-1.504;2023-09-19T09:35:52;2.60;;;1.02;;
67997;SDS011;54773;53.388;-1.504;2023-09-19T09:38:47;3.33;;;0.90;;
67997;SDS011;54773;53.388;-1.504;2023-09-19T09:41:37;3.60;;;0.82;;
67997;SDS011;54773;53.388;-1.504;2023-09-19T09:44:23;3.47;;;0.80;;
67997;SDS011;54773;53.388;-1.504;2023-09-19T09:47:07;3.22;;;1.10;;
67997;SDS011;54773;53.388;-1.504;2023-09-19T09:53:01;1.45;;;0.60;;
67997;SDS011;54773;53.388;-1.504;2023-09-19T09:55:57;1.35;;;0.52;;
67997;SDS011;54773;53.388;-1.504;2023-09-19T09:58:50;3.20;;;0.90;;
67997;SDS011;54773;53.388;-1.504;2023-09-19T10:04:32;1.02;;;0.60;;
67997;SDS011;54773;53.388;-1.504;2023-09-19T10:07:26;1.65;;;0.50;;
67997;SDS011;54773;53.388;-1.504;2023-09-19T10:10:37;0.98;;;0.40;;
67997;SDS011;54773;53.388;-1.504;2023-09-19T10:13:28;2.83;;;0.93;;
67997;SDS011;54773;53.388;-1.504;2023-09-19T10:16:14;1.63;;;0.40;;
67997;SDS011;54773;53.388;-1.504;2023-09-19T10:19:01;2.40;;;0.63;;
67997;SDS011;54773;53.388;-1.504;2023-09-19T10:21:47;1.55;;;0.30;;
67997;SDS011;54773;53.388;-1.504;2023-09-19T10:24:33;0.40;;;0.15;;
67997;SDS011;54773;53.388;-1.504;2023-09-19T10:27:18;1.38;;;0.70;;
67997;SDS011;54773;53.388;-1.504;2023-09-19T10:30:06;0.85;;;0.50;;
67997;SDS011;54773;53.388;-1.504;2023-09-19T10:32:57;1.38;;;0.35;;
67997;SDS011;54773;53.388;-1.504;2023-09-19T10:35:47;3.10;;;0.25;;
67997;SDS011;54773;53.388;-1.504;2023-09-19T10:38:33;0.57;;;0.20;;
67997;SDS011;54773;53.388;-1.504;2023-09-19T10:41:19;0.98;;;0.30;;
67997;SDS011;54773;53.388;-1.504;2023-09-19T10:44:05;0.68;;;0.28;;
67997;SDS011;54773;53.388;-1.504;2023-09-19T10:46:49;1.05;;;0.40;;
67997;SDS011;54773;53.388;-1.504;2023-09-19T10:49:35;1.20;;;0.30;;
67997;SDS011;54773;53.388;-1.504;2023-09-19T10:52:30;0.40;;;0.30;;
67997;SDS011;54773;53.388;-1.504;2023-09-19T10:55:17;1.65;;;0.30;;
67997;SDS011;54773;53.388;-1.504;2023-09-19T10:58:06;1.25;;;0.35;;
67997;SDS011;54773;53.388;-1.504;2023-09-19T11:01:00;0.40;;;0.20;;
67997;SDS011;54773;53.388;-1.504;2023-09-19T11:04:21;0.60;;;0.30;;
67997;SDS011;54773;53.388;-1.504;2023-09-19T11:07:17;1.05;;;0.65;;
67997;SDS011;54773;53.388;-1.504;2023-09-19T11:10:01;2.08;;;0.40;;
67997;SDS011;54773;53.388;-1.504;2023-09-19T11:18:53;2.03;;;0.30;;
67997;SDS011;54773;53.388;-1.504;2023-09-19T11:21:38;1.55;;;0.22;;
67997;SDS011;54773;53.388;-1.504;2023-09-19T11:24:28;2.05;;;0.32;;
67997;SDS011;54773;53.388;-1.504;2023-09-19T11:27:15;1.33;;;0.40;;
67997;SDS011;54773;53.388;-1.504;2023-09-19T11:33:19;0.90;;;0.20;;
67997;SDS011;54773;53.388;-1.504;2023-09-19T11:36:36;0.73;;;0.20;;
67997;SDS011;54773;53.388;-1.504;2023-09-19T11:39:29;0.50;;;0.10;;
67997;SDS011;54773;53.388;-1.504;2023-09-19T11:48:30;0.20;;;0.10;;
67997;SDS011;54773;53.388;-1.504;2023-09-19T11:51:22;1.42;;;0.30;;
67997;SDS011;54773;53.388;-1.504;2023-09-19T11:54:10;0.52;;;0.20;;
67997;SDS011;54773;53.388;-1.504;2023-09-19T11:57:12;1.75;;;0.30;;
67997;SDS011;54773;53.388;-1.504;2023-09-19T12:00:04;0.80;;;0.30;;
67997;SDS011;54773;53.388;-1.504;2023-09-19T12:02:50;0.20;;;0.20;;
67997;SDS011;54773;53.388;-1.504;2023-09-19T12:05:39;1.55;;;0.30;;
67997;SDS011;54773;53.388;-1.504;2023-09-19T12:08:24;0.77;;;0.20;;
67997;SDS011;54773;53.388;-1.504;2023-09-19T12:11:13;0.45;;;0.20;;
67997;SDS011;54773;53.388;-1.504;2023-09-19T12:13:59;0.40;;;0.30;;
67997;SDS011;54773;53.388;-1.504;2023-09-19T12:16:54;0.50;;;0.30;;
67997;SDS011;54773;53.388;-1.504;2023-09-19T12:19:49;1.35;;;0.20;;
67997;SDS011;54773;53.388;-1.504;2023-09-19T12:22:41;1.08;;;0.30;;
67997;SDS011;54773;53.388;-1.504;2023-09-19T12:25:30;2.35;;;0.30;;
67997;SDS011;54773;53.388;-1.504;2023-09-19T12:28:27;0.32;;;0.32;;
67997;SDS011;54773;53.388;-1.504;2023-09-19T12:31:14;0.30;;;0.30;;
67997;SDS011;54773;53.388;-1.504;2023-09-19T12:34:01;0.68;;;0.30;;
67997;SDS011;54773;53.388;-1.504;2023-09-19T12:36:46;1.10;;;0.30;;
67997;SDS011;54773;53.388;-1.504;2023-09-19T12:39:36;1.65;;;0.22;;
67997;SDS011;54773;53.388;-1.504;2023-09-19T12:42:24;1.30;;;0.30;;
67997;SDS011;54773;53.388;-1.504;2023-09-19T12:45:19;0.75;;;0.40;;
67997;SDS011;54773;53.388;-1.504;2023-09-19T12:48:17;2.92;;;0.50;;
67997;SDS011;54773;53.388;-1.504;2023-09-19T12:51:04;0.80;;;0.30;;
67997;SDS011;54773;53.388;-1.504;2023-09-19T12:53:56;2.10;;;0.70;;
67997;SDS011;54773;53.388;-1.504;2023-09-19T12:56:42;0.65;;;0.30;;
67997;SDS011;54773;53.388;-1.504;2023-09-19T12:59:29;1.45;;;0.30;;
67997;SDS011;54773;53.388;-1.504;2023-09-19T13:02:16;2.45;;;0.40;;
67997;SDS011;54773;53.388;-1.504;2023-09-19T13:05:05;1.17;;;0.40;;
67997;SDS011;54773;53.388;-1.504;2023-09-19T13:07:53;1.40;;;0.40;;
67997;SDS011;54773;53.388;-1.504;2023-09-19T13:10:59;2.03;;;0.40;;
67997;SDS011;54773;53.388;-1.504;2023-09-19T13:14:15;1.95;;;0.60;;
67997;SDS011;54773;53.388;-1.504;2023-09-19T13:17:05;1.20;;;0.30;;
67997;SDS011;54773;53.388;-1.504;2023-09-19T13:19:59;0.55;;;0.30;;
67997;SDS011;54773;53.388;-1.504;2023-09-19T13:22:46;0.60;;;0.28;;
67997;SDS011;54773;53.388;-1.504;2023-09-19T13:25:37;1.45;;;0.38;;
67997;SDS011;54773;53.388;-1.504;2023-09-19T13:28:23;1.90;;;0.40;;
67997;SDS011;54773;53.388;-1.504;2023-09-19T13:31:08;1.48;;;0.50;;
67997;SDS011;54773;53.388;-1.504;2023-09-19T13:33:54;1.80;;;0.60;;
67997;SDS011;54773;53.388;-1.504;2023-09-19T13:36:38;1.77;;;0.68;;
67997;SDS011;54773;53.388;-1.504;2023-09-19T13:39:23;2.90;;;0.90;;
67997;SDS011;54773;53.388;-1.504;2023-09-19T13:42:10;5.78;;;0.75;;
67997;SDS011;54773;53.388;-1.504;2023-09-19T13:44:55;3.22;;;0.60;;
67997;SDS011;54773;53.388;-1.504;2023-09-19T13:47:40;3.15;;;0.73;;
67997;SDS011;54773;53.388;-1.504;2023-09-19T13:50:24;2.88;;;0.63;;
67997;SDS011;54773;53.388;-1.504;2023-09-19T13:53:09;1.30;;;0.43;;
67997;SDS011;54773;53.388;-1.504;2023-09-19T13:55:53;1.85;;;0.55;;
67997;SDS011;54773;53.388;-1.504;2023-09-19T13:58:37;5.18;;;0.85;;
67997;SDS011;54773;53.388;-1.504;2023-09-19T14:01:25;6.28;;;0.70;;
67997;SDS011;54773;53.388;-1.504;2023-09-19T14:04:10;1.48;;;0.50;;
67997;SDS011;54773;53.388;-1.504;2023-09-19T14:06:55;5.13;;;0.88;;
67997;SDS011;54773;53.388;-1.504;2023-09-19T14:09:41;3.03;;;0.60;;
67997;SDS011;54773;53.388;-1.504;2023-09-19T14:12:25;3.67;;;0.68;;
67997;SDS011;54773;53.388;-1.504;2023-09-19T14:15:09;3.75;;;0.60;;
67997;SDS011;54773;53.388;-1.504;2023-09-19T14:17:54;3.00;;;0.70;;
67997;SDS011;54773;53.388;-1.504;2023-09-19T14:20:39;3.05;;;0.70;;
67997;SDS011;54773;53.388;-1.504;2023-09-19T14:23:24;2.65;;;0.60;;
67997;SDS011;54773;53.388;-1.504;2023-09-19T14:26:10;7.15;;;0.95;;
67997;SDS011;54773;53.388;-1.504;2023-09-19T14:28:53;3.13;;;0.75;;
67997;SDS011;54773;53.388;-1.504;2023-09-19T14:31:38;8.40;;;1.33;;
67997;SDS011;54773;53.388;-1.504;2023-09-19T14:34:25;7.57;;;1.30;;
67997;SDS011;54773;53.388;-1.504;2023-09-19T14:37:09;7.63;;;1.70;;
67997;SDS011;54773;53.388;-1.504;2023-09-19T14:39:54;6.30;;;1.48;;
67997;SDS011;54773;53.388;-1.504;2023-09-19T14:42:39;9.05;;;1.50;;
67997;SDS011;54773;53.388;-1.504;2023-09-19T14:45:24;8.43;;;1.50;;
67997;SDS011;54773;53.388;-1.504;2023-09-19T14:48:09;6.40;;;1.63;;
67997;SDS011;54773;53.388;-1.504;2023-09-19T14:50:52;6.50;;;1.53;;
67997;SDS011;54773;53.388;-1.504;2023-09-19T14:53:39;7.03;;;1.45;;
67997;SDS011;54773;53.388;-1.504;2023-09-19T14:56:24;8.90;;;1.83;;
67997;SDS011;54773;53.388;-1.504;2023-09-19T14:59:09;7.10;;;1.58;;
67997;SDS011;54773;53.388;-1.504;2023-09-19T15:01:54;7.78;;;1.80;;
67997;SDS011;54773;53.388;-1.504;2023-09-19T15:04:38;7.45;;;1.60;;
67997;SDS011;54773;53.388;-1.504;2023-09-19T15:07:24;8.60;;;1.65;;
67997;SDS011;54773;53.388;-1.504;2023-09-19T15:10:10;8.65;;;1.63;;
67997;SDS011;54773;53.388;-1.504;2023-09-19T15:12:56;9.20;;;1.58;;
67997;SDS011;54773;53.388;-1.504;2023-09-19T15:15:41;8.25;;;1.83;;
67997;SDS011;54773;53.388;-1.504;2023-09-19T15:18:26;9.00;;;2.08;;
67997;SDS011;54773;53.388;-1.504;2023-09-19T15:21:12;9.40;;;1.80;;
67997;SDS011;54773;53.388;-1.504;2023-09-19T15:23:57;10.25;;;2.50;;
67997;SDS011;54773;53.388;-1.504;2023-09-19T15:26:41;8.20;;;1.95;;
67997;SDS011;54773;53.388;-1.504;2023-09-19T15:29:27;12.68;;;2.30;;
67997;SDS011;54773;53.388;-1.504;2023-09-19T15:34:55;8.13;;;1.85;;
67997;SDS011;54773;53.388;-1.504;2023-09-19T15:37:39;13.13;;;2.35;;
67997;SDS011;54773;53.388;-1.504;2023-09-19T15:40:25;8.65;;;2.40;;
67997;SDS011;54773;53.388;-1.504;2023-09-19T15:43:09;11.43;;;1.75;;
67997;SDS011;54773;53.388;-1.504;2023-09-19T15:45:53;10.43;;;1.87;;
67997;SDS011;54773;53.388;-1.504;2023-09-19T15:48:37;8.23;;;1.80;;
67997;SDS011;54773;53.388;-1.504;2023-09-19T15:51:20;4.88;;;1.55;;
67997;SDS011;54773;53.388;-1.504;2023-09-19T15:54:10;10.73;;;2.35;;
67997;SDS011;54773;53.388;-1.504;2023-09-19T15:56:57;8.00;;;1.80;;
67997;SDS011;54773;53.388;-1.504;2023-09-19T15:59:43;7.70;;;1.90;;
67997;SDS011;54773;53.388;-1.504;2023-09-19T16:02:28;12.10;;;1.92;;
67997;SDS011;54773;53.388;-1.504;2023-09-19T16:05:12;9.57;;;1.88;;
67997;SDS011;54773;53.388;-1.504;2023-09-19T16:07:56;10.93;;;2.47;;
67997;SDS011;54773;53.388;-1.504;2023-09-19T16:10:40;8.30;;;1.88;;
67997;SDS011;54773;53.388;-1.504;2023-09-19T16:13:25;9.50;;;1.77;;
67997;SDS011;54773;53.388;-1.504;2023-09-19T16:16:09;10.48;;;2.47;;
67997;SDS011;54773;53.388;-1.504;2023-09-19T16:18:57;8.50;;;1.63;;
67997;SDS011;54773;53.388;-1.504;2023-09-19T16:21:47;6.18;;;1.50;;
67997;SDS011;54773;53.388;-1.504;2023-09-19T16:24:31;7.82;;;1.50;;
67997;SDS011;54773;53.388;-1.504;2023-09-19T16:27:14;7.03;;;1.45;;
67997;SDS011;54773;53.388;-1.504;2023-09-19T16:29:59;6.57;;;1.80;;
67997;SDS011;54773;53.388;-1.504;2023-09-19T16:32:43;8.10;;;1.70;;
67997;SDS011;54773;53.388;-1.504;2023-09-19T16:35:27;8.25;;;1.77;;
67997;SDS011;54773;53.388;-1.504;2023-09-19T16:38:13;5.53;;;1.27;;
67997;SDS011;54773;53.388;-1.504;2023-09-19T16:40:59;6.55;;;1.30;;
67997;SDS011;54773;53.388;-1.504;2023-09-19T16:43:44;4.57;;;1.00;;
67997;SDS011;54773;53.388;-1.504;2023-09-19T16:46:28;5.55;;;1.25;;
67997;SDS011;54773;53.388;-1.504;2023-09-19T16:49:12;5.88;;;1.25;;
67997;SDS011;54773;53.388;-1.504;2023-09-19T16:51:56;7.18;;;1.77;;
67997;SDS011;54773;53.388;-1.504;2023-09-19T16:54:40;5.78;;;1.65;;
67997;SDS011;54773;53.388;-1.504;2023-09-19T16:57:24;7.35;;;1.77;;
67997;SDS011;54773;53.388;-1.504;2023-09-19T17:00:08;6.28;;;1.15;;
67997;SDS011;54773;53.388;-1.504;2023-09-19T17:02:53;6.07;;;1.27;;
67997;SDS011;54773;53.388;-1.504;2023-09-19T17:05:40;4.63;;;1.20;;
67997;SDS011;54773;53.388;-1.504;2023-09-19T17:08:28;3.10;;;1.10;;
67997;SDS011;54773;53.388;-1.504;2023-09-19T17:11:13;4.95;;;1.20;;